Time;durP1;ratioP1;P1;durP2;ratioP2;P2;SDS_P1;SDS_P2;PMS_P1;PMS_P2;Temp;Humidity;BMP_temperature;BMP_pressure;BME280_temperature;BME280_humidity;BME280_pressure;Samples;Min_cycle;Max_cycle;Signal;HPM_P1;HPM_P2
2022/03/30 00:01:00;;;;;;;6.70;2.53;;;;;;;;;;6111770;29;20322;-72
2022/03/30 00:04:21;;;;;;;5.60;2.20;;;;;;;;;;6114331;29;20814;-73
2022/03/30 00:07:42;;;;;;;6.47;2.40;;;;;;;;;;6114715;29;20689;-71
2022/03/30 00:11:03;;;;;;;3.53;2.03;;;;;;;;;;6115524;29;20232;-72
2022/03/30 00:14:26;;;;;;;6.17;2.53;;;;;;;;;;6114677;29;20232;-72
2022/03/30 00:17:46;;;;;;;10.43;2.83;;;;;;;;;;6108458;29;20229;-72
2022/03/30 00:21:07;;;;;;;5.97;2.53;;;;;;;;;;6114362;29;20263;-72
2022/03/30 00:24:28;;;;;;;6.23;2.23;;;;;;;;;;6112829;29;20244;-73
2022/03/30 00:27:49;;;;;;;6.53;2.33;;;;;;;;;;6113486;29;20256;-73
2022/03/30 00:31:12;;;;;;;5.43;2.20;;;;;;;;;;6100432;29;20239;-72
2022/03/30 00:34:33;;;;;;;7.53;2.80;;;;;;;;;;6105626;29;20264;-72
2022/03/30 00:37:54;;;;;;;5.93;2.40;;;;;;;;;;6114257;29;20313;-72
2022/03/30 00:41:15;;;;;;;3.17;1.87;;;;;;;;;;6112401;29;20265;-72
2022/03/30 00:44:37;;;;;;;10.77;3.07;;;;;;;;;;6114798;29;20236;-72
2022/03/30 00:48:00;;;;;;;4.43;2.13;;;;;;;;;;6112016;29;20354;-72
2022/03/30 00:51:21;;;;;;;9.20;2.60;;;;;;;;;;6111780;29;20326;-72
2022/03/30 00:54:43;;;;;;;5.87;2.77;;;;;;;;;;6111726;29;20311;-72
2022/03/30 00:58:04;;;;;;;8.23;2.20;;;;;;;;;;6113296;29;21691;-72
2022/03/30 01:01:25;;;;;;;5.50;1.90;;;;;;;;;;6112815;29;20228;-72
2022/03/30 01:04:48;;;;;;;5.50;2.10;;;;;;;;;;6114023;29;20232;-71
2022/03/30 01:08:09;;;;;;;6.73;3.57;;;;;;;;;;6105204;29;20788;-73
2022/03/30 01:11:30;;;;;;;5.53;2.40;;;;;;;;;;6110740;29;20239;-72
2022/03/30 01:14:50;;;;;;;5.63;2.43;;;;;;;;;;6112962;29;20235;-72
2022/03/30 01:18:13;;;;;;;7.17;2.20;;;;;;;;;;6111091;29;20224;-73
2022/03/30 01:21:36;;;;;;;6.90;2.87;;;;;;;;;;6108279;29;20228;-72
2022/03/30 01:24:57;;;;;;;6.67;2.80;;;;;;;;;;6107501;29;20251;-72
2022/03/30 01:28:18;;;;;;;5.63;2.47;;;;;;;;;;6096814;29;20236;-72
2022/03/30 01:35:17;;;;;;;5.33;2.37;;;;;;;;;;6111794;29;20240;-71
2022/03/30 01:38:40;;;;;;;3.60;2.13;;;;;;;;;;6110065;29;20567;-72
2022/03/30 01:42:01;;;;;;;7.43;2.17;;;;;;;;;;6112867;29;20315;-72
2022/03/30 01:45:22;;;;;;;4.50;2.47;;;;;;;;;;6111294;29;20227;-73
2022/03/30 01:48:43;;;;;;;4.87;2.83;;;;;;;;;;6113921;29;20814;-72
2022/03/30 01:52:05;;;;;;;6.73;2.03;;;;;;;;;;6112346;29;20231;-72
2022/03/30 01:55:27;;;;;;;8.97;2.63;;;;;;;;;;6114622;29;20251;-72
2022/03/30 01:58:48;;;;;;;8.47;2.23;;;;;;;;;;6111211;29;20267;-73
2022/03/30 02:02:10;;;;;;;4.77;2.13;;;;;;;;;;6112627;29;20645;-72
2022/03/30 02:05:32;;;;;;;7.77;2.67;;;;;;;;;;6112923;29;20508;-72
2022/03/30 02:08:52;;;;;;;6.30;2.27;;;;;;;;;;6110712;29;20222;-73
2022/03/30 02:12:15;;;;;;;3.33;1.50;;;;;;;;;;6110333;29;20326;-72
2022/03/30 02:15:36;;;;;;;5.57;2.47;;;;;;;;;;6109275;29;20232;-72
2022/03/30 02:18:56;;;;;;;3.53;2.03;;;;;;;;;;6110303;29;20232;-72
2022/03/30 02:22:17;;;;;;;4.77;2.03;;;;;;;;;;6110005;29;20236;-72
2022/03/30 02:25:38;;;;;;;6.10;2.33;;;;;;;;;;6109103;29;20271;-73
2022/03/30 02:29:00;;;;;;;3.30;2.03;;;;;;;;;;6106680;29;20239;-73
2022/03/30 02:32:21;;;;;;;5.17;2.07;;;;;;;;;;6104533;29;21017;-72
2022/03/30 02:35:42;;;;;;;8.07;2.80;;;;;;;;;;6107292;29;20314;-72
2022/03/30 02:39:03;;;;;;;6.00;2.20;;;;;;;;;;6112233;29;20247;-72
2022/03/30 02:42:24;;;;;;;5.67;2.60;;;;;;;;;;6108997;29;20224;-71
2022/03/30 02:45:46;;;;;;;4.67;2.17;;;;;;;;;;6110394;29;20224;-73
2022/03/30 02:49:07;;;;;;;8.90;2.73;;;;;;;;;;6110450;29;20232;-73
2022/03/30 02:52:28;;;;;;;5.27;1.93;;;;;;;;;;6108970;29;20227;-73
2022/03/30 02:55:50;;;;;;;4.20;2.50;;;;;;;;;;6109463;29;20316;-73
2022/03/30 02:59:11;;;;;;;5.17;2.00;;;;;;;;;;6109313;29;20599;-73
2022/03/30 03:02:34;;;;;;;4.63;1.80;;;;;;;;;;6108028;29;20236;-71
2022/03/30 03:05:55;;;;;;;7.73;1.93;;;;;;;;;;6115843;29;20510;-72
2022/03/30 03:09:16;;;;;;;10.53;3.70;;;;;;;;;;6117633;29;20236;-73
2022/03/30 03:12:37;;;;;;;8.50;5.30;;;;;;;;;;6117574;29;20326;-72
2022/03/30 03:15:58;;;;;;;5.83;4.07;;;;;;;;;;6119189;29;20227;-73
2022/03/30 03:19:20;;;;;;;8.50;2.80;;;;;;;;;;6119391;29;20235;-72
2022/03/30 03:22:41;;;;;;;8.37;2.80;;;;;;;;;;6115052;29;20235;-72
2022/03/30 03:26:02;;;;;;;4.90;2.30;;;;;;;;;;6118225;29;20228;-72
2022/03/30 03:29:22;;;;;;;3.87;1.87;;;;;;;;;;6117438;29;20239;-73
2022/03/30 03:32:43;;;;;;;7.87;2.40;;;;;;;;;;6115190;29;20508;-72
2022/03/30 03:36:06;;;;;;;6.53;2.63;;;;;;;;;;6118082;29;20261;-71
2022/03/30 03:39:27;;;;;;;5.50;2.07;;;;;;;;;;6123631;29;20239;-72
2022/03/30 03:42:48;;;;;;;6.40;2.13;;;;;;;;;;6108189;29;20259;-73
2022/03/30 03:46:09;;;;;;;7.63;2.40;;;;;;;;;;6113336;29;20278;-72
2022/03/30 03:49:30;;;;;;;13.13;10.17;;;;;;;;;;6119240;29;20227;-71
2022/03/30 03:52:52;;;;;;;6.97;5.10;;;;;;;;;;6115144;29;20614;-71
2022/03/30 03:56:12;;;;;;;8.37;2.83;;;;;;;;;;6117535;29;20295;-72
2022/03/30 03:59:33;;;;;;;4.23;2.20;;;;;;;;;;6118242;29;20220;-72
2022/03/30 04:02:54;;;;;;;5.40;1.90;;;;;;;;;;6112373;29;20244;-71
2022/03/30 04:06:15;;;;;;;7.47;6.20;;;;;;;;;;6117125;29;20236;-73
2022/03/30 04:09:37;;;;;;;8.17;6.00;;;;;;;;;;6118897;29;20235;-71
2022/03/30 04:12:58;;;;;;;7.37;5.80;;;;;;;;;;6116647;29;20227;-71
2022/03/30 04:16:19;;;;;;;11.83;8.83;;;;;;;;;;6117854;29;20240;-71
2022/03/30 04:19:40;;;;;;;3.77;2.37;;;;;;;;;;6113767;29;20224;-72
2022/03/30 04:23:01;;;;;;;4.80;1.83;;;;;;;;;;6114618;29;20782;-72
2022/03/30 04:26:23;;;;;;;6.83;3.13;;;;;;;;;;6109487;29;20255;-72
2022/03/30 04:29:44;;;;;;;5.33;2.00;;;;;;;;;;6114042;29;20244;-71
2022/03/30 04:33:05;;;;;;;7.57;2.63;;;;;;;;;;6109259;29;20240;-72
2022/03/30 04:36:27;;;;;;;7.10;2.20;;;;;;;;;;6110075;29;20244;-72
2022/03/30 04:39:48;;;;;;;3.90;1.77;;;;;;;;;;6114253;29;20685;-72
2022/03/30 04:43:10;;;;;;;6.10;2.30;;;;;;;;;;6109166;29;20224;-72
2022/03/30 04:46:31;;;;;;;6.70;2.00;;;;;;;;;;6109886;29;20236;-72
2022/03/30 04:49:52;;;;;;;4.80;1.43;;;;;;;;;;6112695;29;20232;-73
2022/03/30 04:53:13;;;;;;;4.53;1.90;;;;;;;;;;6114429;29;20586;-72
2022/03/30 04:56:34;;;;;;;5.47;2.10;;;;;;;;;;6109255;29;20255;-71
2022/03/30 04:59:56;;;;;;;5.40;3.67;;;;;;;;;;6113537;29;20224;-71
2022/03/30 05:03:16;;;;;;;6.67;4.93;;;;;;;;;;6108921;29;20235;-72
2022/03/30 05:06:37;;;;;;;6.23;2.17;;;;;;;;;;6101222;29;20657;-72
2022/03/30 05:09:59;;;;;;;3.87;2.03;;;;;;;;;;6103716;29;20259;-69
2022/03/30 05:13:19;;;;;;;3.33;1.67;;;;;;;;;;6101687;29;20236;-76
2022/03/30 05:16:41;;;;;;;3.60;1.80;;;;;;;;;;6105054;29;20497;-76
2022/03/30 05:20:03;;;;;;;5.00;2.90;;;;;;;;;;6113922;29;20227;-75
2022/03/30 05:23:24;;;;;;;4.03;3.10;;;;;;;;;;6119770;29;20331;-76
2022/03/30 05:26:46;;;;;;;4.70;2.10;;;;;;;;;;6116540;29;20235;-75
2022/03/30 05:30:08;;;;;;;5.80;2.73;;;;;;;;;;6108197;29;20232;-76
2022/03/30 05:33:30;;;;;;;4.77;2.63;;;;;;;;;;6113005;29;20268;-76
2022/03/30 05:36:52;;;;;;;3.17;1.87;;;;;;;;;;6111468;29;20347;-77
2022/03/30 05:40:13;;;;;;;3.00;1.90;;;;;;;;;;6114394;29;20220;-77
2022/03/30 05:43:33;;;;;;;7.20;2.47;;;;;;;;;;6120908;29;20614;-75
2022/03/30 05:46:54;;;;;;;7.10;1.93;;;;;;;;;;6116025;29;20227;-76
2022/03/30 05:50:16;;;;;;;5.90;2.30;;;;;;;;;;6114089;29;20289;-75
2022/03/30 05:53:38;;;;;;;3.10;2.60;;;;;;;;;;6118584;29;20791;-74
2022/03/30 05:57:02;;;;;;;7.00;2.90;;;;;;;;;;6113799;29;20223;-75
2022/03/30 06:00:23;;;;;;;6.53;3.13;;;;;;;;;;6121080;29;20584;-75
2022/03/30 06:03:44;;;;;;;3.63;2.20;;;;;;;;;;6111913;29;20240;-76
2022/03/30 06:07:06;;;;;;;6.30;2.37;;;;;;;;;;6105742;29;20224;-74
2022/03/30 06:10:28;;;;;;;4.87;2.43;;;;;;;;;;6114735;29;20237;-75
2022/03/30 06:13:49;;;;;;;7.57;2.30;;;;;;;;;;6099766;29;20239;-76
2022/03/30 06:17:10;;;;;;;6.43;3.40;;;;;;;;;;6106469;29;20537;-75
2022/03/30 06:20:31;;;;;;;3.87;2.63;;;;;;;;;;6108107;29;20248;-75
2022/03/30 06:23:54;;;;;;;14.20;10.43;;;;;;;;;;6109650;29;20279;-76
2022/03/30 06:27:15;;;;;;;21.60;19.40;;;;;;;;;;6111406;29;20239;-77
2022/03/30 06:30:36;;;;;;;6.77;5.20;;;;;;;;;;6103010;29;20563;-76
2022/03/30 06:33:57;;;;;;;9.43;3.57;;;;;;;;;;6107573;29;20487;-76
2022/03/30 06:37:17;;;;;;;6.83;2.83;;;;;;;;;;6105466;29;20893;-76
2022/03/30 06:40:39;;;;;;;3.57;2.70;;;;;;;;;;6111999;29;20224;-76
2022/03/30 06:44:00;;;;;;;6.77;2.57;;;;;;;;;;6101761;29;20228;-76
2022/03/30 06:47:21;;;;;;;5.60;2.80;;;;;;;;;;6105890;29;20232;-76
2022/03/30 06:50:42;;;;;;;3.03;2.10;;;;;;;;;;6110658;29;20232;-75
2022/03/30 06:54:03;;;;;;;5.60;2.53;;;;;;;;;;6108148;29;20232;-76
2022/03/30 06:57:26;;;;;;;4.63;1.57;;;;;;;;;;6112853;29;20235;-76
2022/03/30 07:00:47;;;;;;;19.00;17.17;;;;;;;;;;6119144;29;20235;-76
2022/03/30 07:04:07;;;;;;;7.30;6.17;;;;;;;;;;6111321;29;20233;-76
2022/03/30 07:11:07;;;;;;;8.23;5.33;;;;;;;;;;6111746;29;20262;-75
2022/03/30 07:14:30;;;;;;;5.70;3.23;;;;;;;;;;6121061;29;20331;-77
2022/03/30 07:17:52;;;;;;;3.93;3.47;;;;;;;;;;6118604;29;20236;-77
2022/03/30 07:21:13;;;;;;;9.80;7.53;;;;;;;;;;6122435;29;20239;-76
2022/03/30 07:24:33;;;;;;;3.40;3.00;;;;;;;;;;6120212;29;20227;-76
2022/03/30 07:27:58;;;;;;;4.00;2.90;;;;;;;;;;6121470;29;20227;-75
2022/03/30 07:31:20;;;;;;;3.63;2.20;;;;;;;;;;6121346;29;20560;-77
2022/03/30 07:34:41;;;;;;;4.43;1.97;;;;;;;;;;6121606;29;20247;-77
2022/03/30 07:38:02;;;;;;;3.87;1.83;;;;;;;;;;6122241;29;20236;-76
2022/03/30 07:41:23;;;;;;;3.53;2.67;;;;;;;;;;6116397;29;20315;-76
2022/03/30 07:44:44;;;;;;;3.33;2.00;;;;;;;;;;6120353;29;20240;-75
2022/03/30 07:48:08;;;;;;;3.80;2.13;;;;;;;;;;6119937;29;20228;-76
2022/03/30 07:51:30;;;;;;;6.77;2.97;;;;;;;;;;6122612;29;20227;-76
2022/03/30 07:54:52;;;;;;;3.70;2.00;;;;;;;;;;6123915;29;20987;-77
2022/03/30 07:58:12;;;;;;;3.07;1.97;;;;;;;;;;6123833;29;20699;-77
2022/03/30 08:01:33;;;;;;;22.20;19.37;;;;;;;;;;6126405;29;20227;-76
2022/03/30 08:04:56;;;;;;;11.73;7.97;;;;;;;;;;6122670;29;20224;-76
2022/03/30 08:08:16;;;;;;;4.57;3.10;;;;;;;;;;6123122;29;20232;-75
2022/03/30 08:11:38;;;;;;;3.00;2.07;;;;;;;;;;6125076;29;20232;-75
2022/03/30 08:14:59;;;;;;;4.87;2.47;;;;;;;;;;6125262;29;20569;-76
2022/03/30 08:18:21;;;;;;;4.47;1.97;;;;;;;;;;6124468;29;20553;-75
2022/03/30 08:25:21;;;;;;;5.60;2.37;;;;;;;;;;6109654;29;20235;-76
2022/03/30 08:28:42;;;;;;;4.97;2.37;;;;;;;;;;6125679;29;20315;-75
2022/03/30 08:32:03;;;;;;;4.57;2.47;;;;;;;;;;6124348;29;20652;-75
2022/03/30 08:35:25;;;;;;;3.17;2.10;;;;;;;;;;6122976;29;20240;-76
2022/03/30 08:38:47;;;;;;;4.70;3.13;;;;;;;;;;6125403;29;20224;-76
2022/03/30 08:42:10;;;;;;;5.50;2.33;;;;;;;;;;6126400;29;20375;-76
2022/03/30 08:45:31;;;;;;;5.87;3.07;;;;;;;;;;6110515;29;20236;-76
2022/03/30 08:48:52;;;;;;;5.27;3.00;;;;;;;;;;6125318;29;20239;-77
2022/03/30 08:52:13;;;;;;;5.53;3.60;;;;;;;;;;6121475;29;20291;-77
2022/03/30 08:55:38;;;;;;;6.27;3.93;;;;;;;;;;6123367;29;20611;-78
2022/03/30 08:59:02;;;;;;;6.17;3.67;;;;;;;;;;6118239;29;20949;-76
2022/03/30 09:02:22;;;;;;;3.67;2.37;;;;;;;;;;6124910;29;20235;-77
2022/03/30 09:05:44;;;;;;;9.07;3.33;;;;;;;;;;6124269;29;20248;-76
2022/03/30 09:09:06;;;;;;;5.00;1.80;;;;;;;;;;6121758;29;20228;-76
2022/03/30 09:12:28;;;;;;;3.23;1.77;;;;;;;;;;6124604;29;20274;-75
2022/03/30 09:15:51;;;;;;;3.73;2.43;;;;;;;;;;6122976;29;20513;-76
2022/03/30 09:19:13;;;;;;;3.17;2.40;;;;;;;;;;6123217;29;20243;-77
2022/03/30 09:22:34;;;;;;;3.23;1.90;;;;;;;;;;6119211;29;20231;-77
2022/03/30 09:25:55;;;;;;;5.17;2.53;;;;;;;;;;6123953;29;20318;-75
2022/03/30 09:29:19;;;;;;;3.27;2.50;;;;;;;;;;6109870;29;20239;-76
2022/03/30 09:32:41;;;;;;;4.43;1.90;;;;;;;;;;6119385;29;20543;-77
2022/03/30 09:36:02;;;;;;;6.13;3.30;;;;;;;;;;6123219;29;20231;-76
2022/03/30 09:39:31;;;;;;;5.43;3.40;;;;;;;;;;6096404;29;20228;-76
2022/03/30 09:43:09;;;;;;;6.40;3.77;;;;;;;;;;6122654;29;20310;-77
2022/03/30 09:46:31;;;;;;;6.40;4.23;;;;;;;;;;6116695;29;20236;-77
2022/03/30 09:49:53;;;;;;;4.63;3.37;;;;;;;;;;6121458;29;20231;-76
2022/03/30 09:53:16;;;;;;;4.97;3.90;;;;;;;;;;6123095;29;20232;-76
2022/03/30 09:56:40;;;;;;;5.03;4.50;;;;;;;;;;6120190;29;20540;-75
2022/03/30 10:00:07;;;;;;;4.03;3.33;;;;;;;;;;6126891;29;20227;-75
2022/03/30 10:03:41;;;;;;;3.30;2.80;;;;;;;;;;6121835;29;20231;-76
2022/03/30 10:07:03;;;;;;;4.90;2.43;;;;;;;;;;6124292;29;20216;-76
2022/03/30 10:10:24;;;;;;;2.90;1.77;;;;;;;;;;6121795;29;20232;-75
2022/03/30 10:13:46;;;;;;;4.07;2.20;;;;;;;;;;6122636;29;20640;-76
2022/03/30 10:17:07;;;;;;;3.77;2.13;;;;;;;;;;6121657;29;20228;-76
2022/03/30 10:20:31;;;;;;;3.07;2.00;;;;;;;;;;6122156;29;20767;-77
2022/03/30 10:24:02;;;;;;;4.77;1.93;;;;;;;;;;6119739;29;20224;-76
2022/03/30 10:27:29;;;;;;;2.90;2.27;;;;;;;;;;6103570;29;20228;-75
2022/03/30 10:30:54;;;;;;;5.10;4.20;;;;;;;;;;6116784;29;20243;-76
2022/03/30 10:34:25;;;;;;;2.73;1.73;;;;;;;;;;6121406;29;20235;-76
2022/03/30 10:37:59;;;;;;;3.37;1.90;;;;;;;;;;6119225;29;20630;-76
2022/03/30 10:41:20;;;;;;;4.17;1.93;;;;;;;;;;6118453;29;20235;-76
2022/03/30 10:44:42;;;;;;;2.57;2.37;;;;;;;;;;6119536;29;20236;-76
2022/03/30 10:48:08;;;;;;;3.00;2.07;;;;;;;;;;6117818;29;20630;-76
2022/03/30 10:51:28;;;;;;;2.37;1.90;;;;;;;;;;6125350;29;20665;-76
2022/03/30 10:54:55;;;;;;;1.93;1.20;;;;;;;;;;6107676;29;20235;-76
2022/03/30 10:58:16;;;;;;;1.43;1.23;;;;;;;;;;6121356;29;20243;-77
2022/03/30 11:01:38;;;;;;;4.17;1.77;;;;;;;;;;6120664;29;20231;-75
2022/03/30 11:05:09;;;;;;;2.63;1.50;;;;;;;;;;6114904;29;20294;-75
2022/03/30 11:09:07;;;;;;;1.77;1.50;;;;;;;;;;6116915;29;22092;-76
2022/03/30 11:12:30;;;;;;;2.07;1.47;;;;;;;;;;6115440;29;20323;-75
2022/03/30 11:16:11;;;;;;;2.70;1.77;;;;;;;;;;6120069;29;20231;-76
2022/03/30 11:20:04;;;;;;;1.50;1.10;;;;;;;;;;6118902;29;20240;-76
2022/03/30 11:23:27;;;;;;;1.80;1.47;;;;;;;;;;6122846;29;20284;-75
2022/03/30 11:27:21;;;;;;;4.00;1.87;;;;;;;;;;6121690;29;20232;-76
2022/03/30 11:30:45;;;;;;;2.00;1.47;;;;;;;;;;6120224;29;20227;-75
2022/03/30 11:34:30;;;;;;;2.20;1.20;;;;;;;;;;6126326;29;20613;-77
2022/03/30 11:38:10;;;;;;;2.03;1.80;;;;;;;;;;6098318;29;20239;-75
2022/03/30 11:41:33;;;;;;;2.00;1.80;;;;;;;;;;6110088;29;20227;-76
2022/03/30 11:48:39;;;;;;;1.33;1.23;;;;;;;;;;6125138;29;20524;-76
2022/03/30 11:52:14;;;;;;;2.57;1.30;;;;;;;;;;6123558;29;20228;-77
2022/03/30 11:55:38;;;;;;;2.53;1.30;;;;;;;;;;6123415;29;20342;-76
2022/03/30 11:58:59;;;;;;;2.63;1.90;;;;;;;;;;6125270;29;20721;-75
2022/03/30 12:02:20;;;;;;;1.60;1.37;;;;;;;;;;6125863;29;20285;-75
2022/03/30 12:05:46;;;;;;;2.17;1.83;;;;;;;;;;6124404;29;20235;-76
2022/03/30 12:09:07;;;;;;;1.87;1.50;;;;;;;;;;6123643;29;20240;-77
2022/03/30 12:12:31;;;;;;;1.87;1.30;;;;;;;;;;6124243;29;20231;-76
2022/03/30 12:16:06;;;;;;;2.20;1.57;;;;;;;;;;6125191;29;20232;-76
2022/03/30 12:19:27;;;;;;;4.37;2.13;;;;;;;;;;6112759;29;20244;-75
2022/03/30 12:22:58;;;;;;;4.20;1.50;;;;;;;;;;6125960;29;20236;-76
2022/03/30 12:26:19;;;;;;;2.07;1.80;;;;;;;;;;6123629;29;20236;-75
2022/03/30 12:29:40;;;;;;;5.97;5.20;;;;;;;;;;6123189;29;20377;-75
2022/03/30 12:33:01;;;;;;;9.63;8.73;;;;;;;;;;6123678;29;20299;-75
2022/03/30 12:36:22;;;;;;;3.80;3.03;;;;;;;;;;6111703;29;20267;-76
2022/03/30 12:39:46;;;;;;;1.80;1.50;;;;;;;;;;6122202;29;20228;-75
2022/03/30 12:43:07;;;;;;;2.50;1.30;;;;;;;;;;6125880;29;20235;-76
2022/03/30 12:46:29;;;;;;;5.77;4.43;;;;;;;;;;6109948;29;20223;-76
2022/03/30 12:49:53;;;;;;;3.10;2.80;;;;;;;;;;6121872;29;20228;-77
2022/03/30 12:53:17;;;;;;;3.50;2.03;;;;;;;;;;6127718;29;20231;-77
2022/03/30 12:56:46;;;;;;;2.70;1.97;;;;;;;;;;6125037;29;20330;-76
2022/03/30 13:00:17;;;;;;;4.90;3.93;;;;;;;;;;6124393;29;20513;-76
2022/03/30 13:03:38;;;;;;;3.37;3.13;;;;;;;;;;6117939;29;20232;-77
2022/03/30 13:07:07;;;;;;;1.90;1.80;;;;;;;;;;6123313;29;20594;-76
2022/03/30 13:10:29;;;;;;;2.03;1.67;;;;;;;;;;6121910;29;20231;-76
2022/03/30 13:13:51;;;;;;;2.33;1.83;;;;;;;;;;6127031;29;20232;-76
2022/03/30 13:17:15;;;;;;;2.40;2.07;;;;;;;;;;6123300;29;20649;-75
2022/03/30 13:20:39;;;;;;;1.87;1.77;;;;;;;;;;6121467;29;20239;-76
2022/03/30 13:24:09;;;;;;;10.63;9.80;;;;;;;;;;6122108;29;20503;-77
2022/03/30 13:27:41;;;;;;;10.67;9.67;;;;;;;;;;6124216;29;20235;-76
2022/03/30 13:31:03;;;;;;;2.60;2.40;;;;;;;;;;6124287;29;20240;-76
2022/03/30 13:34:26;;;;;;;3.57;2.97;;;;;;;;;;6123150;29;20614;-77
2022/03/30 13:37:47;;;;;;;3.53;3.10;;;;;;;;;;6122103;29;20255;-75
2022/03/30 13:41:08;;;;;;;3.67;3.03;;;;;;;;;;6110981;29;20311;-77
2022/03/30 13:44:30;;;;;;;3.07;2.27;;;;;;;;;;6121597;29;20264;-75
2022/03/30 13:47:52;;;;;;;2.50;2.07;;;;;;;;;;6123226;29;20231;-76
2022/03/30 13:51:13;;;;;;;5.23;4.10;;;;;;;;;;6121951;29;20220;-75
2022/03/30 13:54:34;;;;;;;2.20;2.00;;;;;;;;;;6123481;29;20236;-75
2022/03/30 13:57:57;;;;;;;1.80;1.70;;;;;;;;;;6123960;29;20265;-76
2022/03/30 14:01:19;;;;;;;1.90;1.80;;;;;;;;;;6116814;29;20292;-76
2022/03/30 14:04:41;;;;;;;1.90;1.63;;;;;;;;;;6126697;29;20649;-76
2022/03/30 14:08:02;;;;;;;2.30;1.80;;;;;;;;;;6123254;29;20244;-75
2022/03/30 14:11:23;;;;;;;3.37;2.40;;;;;;;;;;6122378;29;20232;-76
2022/03/30 14:14:44;;;;;;;5.63;1.50;;;;;;;;;;6120652;29;20239;-76
2022/03/30 14:18:08;;;;;;;4.70;2.07;;;;;;;;;;6122816;29;20240;-76
2022/03/30 14:21:30;;;;;;;2.17;1.53;;;;;;;;;;6107568;29;20260;-75
2022/03/30 14:24:52;;;;;;;2.27;1.50;;;;;;;;;;6121151;29;20223;-76
2022/03/30 14:28:13;;;;;;;2.40;1.30;;;;;;;;;;6123995;29;20649;-75
2022/03/30 14:31:34;;;;;;;2.57;1.60;;;;;;;;;;6116845;29;20323;-75
2022/03/30 14:34:55;;;;;;;11.40;2.30;;;;;;;;;;6120431;29;20228;-75
2022/03/30 14:38:17;;;;;;;2.40;2.00;;;;;;;;;;6119776;29;20231;-75
2022/03/30 14:41:39;;;;;;;3.43;2.00;;;;;;;;;;6120860;29;20232;-76
2022/03/30 14:45:00;;;;;;;2.70;2.20;;;;;;;;;;6120838;29;20228;-77
2022/03/30 14:48:23;;;;;;;2.37;1.93;;;;;;;;;;6120420;29;20231;-75
2022/03/30 14:51:44;;;;;;;5.13;1.90;;;;;;;;;;6123876;29;20223;-76
2022/03/30 14:55:08;;;;;;;3.93;2.73;;;;;;;;;;6120609;29;20239;-76
2022/03/30 14:58:28;;;;;;;2.30;1.97;;;;;;;;;;6122665;28;20240;-75
2022/03/30 15:01:49;;;;;;;2.83;1.70;;;;;;;;;;6112824;29;20609;-75
2022/03/30 15:05:10;;;;;;;3.80;2.33;;;;;;;;;;6111287;29;20232;-75
2022/03/30 15:08:31;;;;;;;3.87;2.23;;;;;;;;;;6121283;29;20227;-75
2022/03/30 15:11:53;;;;;;;4.07;2.07;;;;;;;;;;6122665;29;20239;-75
2022/03/30 15:15:15;;;;;;;3.23;2.00;;;;;;;;;;6118990;29;20227;-76
2022/03/30 15:18:36;;;;;;;2.53;2.30;;;;;;;;;;6122593;29;20227;-76
2022/03/30 15:21:58;;;;;;;4.53;2.83;;;;;;;;;;6123179;29;20235;-75
2022/03/30 15:25:19;;;;;;;4.17;2.30;;;;;;;;;;6121979;29;20498;-76
2022/03/30 15:28:42;;;;;;;3.30;1.93;;;;;;;;;;6119260;29;20610;-76
2022/03/30 15:32:04;;;;;;;3.63;2.33;;;;;;;;;;6121776;29;20227;-75
2022/03/30 15:35:25;;;;;;;2.80;2.60;;;;;;;;;;6118828;29;20232;-75
2022/03/30 15:38:47;;;;;;;2.47;2.27;;;;;;;;;;6120363;29;20723;-76
2022/03/30 15:42:08;;;;;;;2.57;2.30;;;;;;;;;;6116905;29;20426;-76
2022/03/30 15:45:32;;;;;;;4.47;2.40;;;;;;;;;;6114751;29;20231;-75
2022/03/30 15:48:53;;;;;;;4.57;2.10;;;;;;;;;;6107145;29;20224;-74
2022/03/30 15:52:14;;;;;;;12.30;11.10;;;;;;;;;;6117762;29;20235;-75
2022/03/30 15:55:35;;;;;;;20.90;18.80;;;;;;;;;;6114188;29;20775;-75
2022/03/30 15:58:56;;;;;;;4.47;3.37;;;;;;;;;;6108280;29;20235;-75
2022/03/30 16:02:19;;;;;;;8.57;7.67;;;;;;;;;;6116947;29;20543;-76
2022/03/30 16:05:39;;;;;;;3.77;3.27;;;;;;;;;;6118121;29;20260;-76
2022/03/30 16:09:02;;;;;;;11.43;10.23;;;;;;;;;;6116119;29;20232;-76
2022/03/30 16:12:23;;;;;;;3.63;2.80;;;;;;;;;;6115594;29;20610;-75
2022/03/30 16:15:44;;;;;;;2.70;1.80;;;;;;;;;;6108303;29;20240;-76
2022/03/30 16:19:08;;;;;;;5.57;2.30;;;;;;;;;;6115575;29;20322;-76
2022/03/30 16:22:29;;;;;;;8.43;7.63;;;;;;;;;;6101412;29;20231;-76
2022/03/30 16:25:50;;;;;;;2.87;1.93;;;;;;;;;;6094352;29;20233;-77
2022/03/30 16:29:13;;;;;;;8.03;6.47;;;;;;;;;;6119269;29;20621;-76
2022/03/30 16:32:34;;;;;;;3.13;2.30;;;;;;;;;;6104353;29;20232;-74
2022/03/30 16:35:56;;;;;;;2.23;2.03;;;;;;;;;;6114848;29;20280;-76
2022/03/30 16:39:22;;;;;;;5.27;3.13;;;;;;;;;;6118642;29;20227;-76
2022/03/30 16:42:43;;;;;;;5.80;2.73;;;;;;;;;;6115696;29;20500;-76
2022/03/30 16:46:04;;;;;;;8.03;7.23;;;;;;;;;;6107751;29;20239;-74
2022/03/30 16:49:25;;;;;;;6.80;6.10;;;;;;;;;;6110773;29;20260;-76
2022/03/30 16:52:47;;;;;;;3.50;2.50;;;;;;;;;;6118040;29;20591;-77
2022/03/30 16:56:08;;;;;;;2.40;2.20;;;;;;;;;;6107771;29;20232;-75
2022/03/30 16:59:29;;;;;;;3.60;2.67;;;;;;;;;;6119547;29;20280;-75
2022/03/30 17:02:49;;;;;;;6.10;3.37;;;;;;;;;;6112210;29;20236;-75
2022/03/30 17:06:11;;;;;;;18.37;15.80;;;;;;;;;;6113549;29;20315;-75
2022/03/30 17:13:12;;;;;;;6.40;4.60;;;;;;;;;;6115798;29;21733;-74
2022/03/30 17:16:33;;;;;;;4.37;2.97;;;;;;;;;;6104630;29;20232;-75
2022/03/30 17:19:56;;;;;;;2.43;2.23;;;;;;;;;;6104711;29;20251;-75
2022/03/30 17:23:17;;;;;;;3.73;2.60;;;;;;;;;;6113652;29;20236;-72
2022/03/30 17:26:40;;;;;;;5.80;5.20;;;;;;;;;;6105481;29;20248;-73
2022/03/30 17:30:01;;;;;;;2.33;2.20;;;;;;;;;;6112973;28;20339;-74
2022/03/30 17:33:22;;;;;;;3.00;2.70;;;;;;;;;;6114715;29;20255;-75
2022/03/30 17:36:43;;;;;;;3.23;2.23;;;;;;;;;;6118671;29;20240;-73
2022/03/30 17:40:04;;;;;;;10.20;4.33;;;;;;;;;;6116762;29;20240;-73
2022/03/30 17:43:27;;;;;;;2.90;1.90;;;;;;;;;;6117730;29;20231;-73
2022/03/30 17:46:48;;;;;;;2.33;2.10;;;;;;;;;;6110688;29;20224;-72
2022/03/30 17:53:50;;;;;;;3.63;2.53;;;;;;;;;;6109214;29;20290;-72
2022/03/30 17:57:15;;;;;;;17.87;13.97;;;;;;;;;;6113991;29;20240;-73
2022/03/30 18:00:37;;;;;;;6.47;4.40;;;;;;;;;;6113457;29;20240;-74
2022/03/30 18:03:58;;;;;;;4.00;2.30;;;;;;;;;;6110578;29;20231;-75
2022/03/30 18:07:21;;;;;;;9.00;7.30;;;;;;;;;;6117191;29;20232;-68
2022/03/30 18:10:43;;;;;;;5.73;3.20;;;;;;;;;;6112312;29;20228;-75
2022/03/30 18:14:05;;;;;;;13.03;11.47;;;;;;;;;;6109563;29;20228;-74
2022/03/30 18:17:27;;;;;;;3.63;2.90;;;;;;;;;;6115196;29;20592;-75
2022/03/30 18:20:49;;;;;;;2.53;2.00;;;;;;;;;;6119262;29;20227;-79
2022/03/30 18:24:11;;;;;;;3.10;2.40;;;;;;;;;;6118921;29;20240;-82
2022/03/30 18:27:35;;;;;;;13.50;12.13;;;;;;;;;;6120337;29;20750;-79
2022/03/30 18:30:56;;;;;;;4.43;4.03;;;;;;;;;;6117133;29;20248;-80
2022/03/30 18:34:18;;;;;;;8.90;6.70;;;;;;;;;;6102659;29;20505;-77
2022/03/30 18:37:39;;;;;;;4.00;3.60;;;;;;;;;;6115251;29;20235;-78
2022/03/30 18:41:00;;;;;;;5.97;5.37;;;;;;;;;;6109871;29;22469;-76
2022/03/30 18:44:23;;;;;;;3.67;3.37;;;;;;;;;;6095799;29;20240;-76
2022/03/30 18:47:44;;;;;;;4.47;4.07;;;;;;;;;;6101946;29;20248;-78
2022/03/30 18:51:07;;;;;;;4.73;3.53;;;;;;;;;;6115381;28;20223;-79
2022/03/30 18:54:29;;;;;;;3.10;2.80;;;;;;;;;;6101818;29;20776;-78
2022/03/30 18:57:50;;;;;;;4.20;3.77;;;;;;;;;;6104971;29;20224;-78
2022/03/30 19:01:11;;;;;;;4.30;3.90;;;;;;;;;;6098173;29;20227;-77
2022/03/30 19:04:36;;;;;;;5.87;5.30;;;;;;;;;;6115414;29;20236;-81
2022/03/30 19:07:59;;;;;;;6.43;4.87;;;;;;;;;;6108796;29;20610;-82
2022/03/30 19:11:25;;;;;;;4.80;4.40;;;;;;;;;;6087963;29;20227;-82
2022/03/30 19:14:49;;;;;;;5.37;4.87;;;;;;;;;;6082552;29;20251;-71
2022/03/30 19:18:13;;;;;;;5.43;4.40;;;;;;;;;;6103941;29;20240;-71
2022/03/30 19:21:33;;;;;;;6.10;4.30;;;;;;;;;;6113772;29;20227;-73
2022/03/30 19:24:56;;;;;;;4.83;3.77;;;;;;;;;;6118378;29;20232;-73
2022/03/30 19:28:20;;;;;;;3.87;3.57;;;;;;;;;;6115467;29;20235;-71
2022/03/30 19:31:41;;;;;;;4.80;4.17;;;;;;;;;;6107400;29;20335;-77
2022/03/30 19:35:02;;;;;;;6.23;3.83;;;;;;;;;;6113432;29;20239;-77
2022/03/30 19:38:26;;;;;;;5.20;4.57;;;;;;;;;;6096438;29;20232;-80
2022/03/30 19:41:48;;;;;;;4.47;4.07;;;;;;;;;;6112741;29;20543;-72
2022/03/30 19:45:11;;;;;;;4.50;3.50;;;;;;;;;;6103476;29;20232;-75
2022/03/30 19:48:31;;;;;;;4.00;3.60;;;;;;;;;;6113909;29;20823;-75
2022/03/30 19:51:53;;;;;;;4.13;3.73;;;;;;;;;;6111127;29;20270;-73
2022/03/30 19:55:15;;;;;;;6.80;4.17;;;;;;;;;;6116940;29;20232;-74
2022/03/30 19:58:38;;;;;;;3.40;3.10;;;;;;;;;;6121643;29;20240;-74
2022/03/30 20:01:59;;;;;;;4.77;3.50;;;;;;;;;;6113011;29;20227;-74
2022/03/30 20:05:20;;;;;;;5.53;4.27;;;;;;;;;;6116969;29;20231;-74
2022/03/30 20:08:41;;;;;;;3.23;2.80;;;;;;;;;;6116819;29;20821;-74
2022/03/30 20:12:02;;;;;;;3.20;2.90;;;;;;;;;;6116826;29;20232;-74
2022/03/30 20:15:26;;;;;;;5.10;4.20;;;;;;;;;;6113652;29;20229;-74
2022/03/30 20:18:47;;;;;;;8.90;4.70;;;;;;;;;;6118505;29;20244;-75
2022/03/30 20:22:07;;;;;;;4.27;3.77;;;;;;;;;;6115905;29;20509;-75
2022/03/30 20:25:28;;;;;;;3.93;3.10;;;;;;;;;;6118369;29;20255;-73
2022/03/30 20:28:50;;;;;;;4.87;3.07;;;;;;;;;;6120161;29;20228;-73
2022/03/30 20:32:12;;;;;;;4.60;3.10;;;;;;;;;;6104094;29;20236;-74